createdAt,value
2023-02-08T00:01:49.511Z,0.60
2023-02-08T00:04:19.106Z,0.60
2023-02-08T00:06:49.340Z,0.50
2023-02-08T00:09:20.457Z,0.50
2023-02-08T00:11:50.864Z,0.40
2023-02-08T00:14:20.336Z,0.40
2023-02-08T00:16:50.091Z,0.40
2023-02-08T00:19:19.410Z,0.50
2023-02-08T00:21:49.018Z,0.50
2023-02-08T00:24:19.780Z,0.40
2023-02-08T00:26:49.549Z,0.50
2023-02-08T00:29:19.144Z,0.50
2023-02-08T00:31:48.945Z,0.40
2023-02-08T00:34:18.335Z,0.40
2023-02-08T00:36:48.481Z,0.40
2023-02-08T00:39:17.871Z,0.50
2023-02-08T00:41:49.378Z,0.40
2023-02-08T00:44:19.433Z,0.40
2023-02-08T00:46:49.244Z,0.40
2023-02-08T00:49:19.038Z,0.40
2023-02-08T00:51:48.878Z,0.40
2023-02-08T00:54:19.669Z,0.40
2023-02-08T00:56:50.504Z,0.40
2023-02-08T00:59:20.400Z,0.50
2023-02-08T01:01:50.574Z,0.40
2023-02-08T01:04:20.062Z,0.50
2023-02-08T01:06:49.676Z,0.40
2023-02-08T01:09:18.940Z,0.40
2023-02-08T01:11:50.068Z,0.40
2023-02-08T01:14:19.597Z,0.40
2023-02-08T01:16:49.361Z,0.40
2023-02-08T01:19:18.880Z,0.30
2023-02-08T01:21:49.724Z,0.40
2023-02-08T01:24:19.501Z,0.40
2023-02-08T01:26:50.707Z,0.30
2023-02-08T01:29:20.390Z,0.30
2023-02-08T01:31:50.264Z,0.30
2023-02-08T01:34:19.570Z,0.30
2023-02-08T01:36:49.495Z,0.30
2023-02-08T01:39:19.125Z,0.30
2023-02-08T01:41:50.268Z,0.30
2023-02-08T01:45:11.082Z,0.30
2023-02-08T01:47:41.042Z,0.30
2023-02-08T01:50:10.914Z,0.30
2023-02-08T01:52:41.114Z,0.30
2023-02-08T01:55:16.795Z,0.40
2023-02-08T01:57:48.425Z,0.40
2023-02-08T02:00:21.556Z,0.30
2023-02-08T02:02:54.889Z,0.30
2023-02-08T02:05:26.623Z,0.30
2023-02-08T02:07:59.119Z,0.30
2023-02-08T02:10:30.411Z,0.30
2023-02-08T02:13:05.892Z,0.20
2023-02-08T02:15:36.160Z,0.20
2023-02-08T02:18:08.683Z,0.20
2023-02-08T02:20:53.553Z,0.20
2023-02-08T02:23:51.782Z,0.20
2023-02-08T02:27:03.500Z,0.20
2023-02-08T02:30:03.323Z,0.30
2023-02-08T02:32:50.512Z,0.30
2023-02-08T02:35:29.534Z,0.30
2023-02-08T02:38:12.885Z,0.30
2023-02-08T02:40:53.304Z,0.30
2023-02-08T02:43:42.645Z,0.30
2023-02-08T02:46:23.828Z,0.30
2023-02-08T02:49:01.108Z,0.30
2023-02-08T02:51:39.816Z,0.30
2023-02-08T02:54:15.934Z,0.30
2023-02-08T02:56:49.169Z,0.30
2023-02-08T02:59:20.406Z,0.30
2023-02-08T03:01:50.838Z,0.30
2023-02-08T03:04:50.014Z,0.30
2023-02-08T03:07:39.947Z,0.40
2023-02-08T03:10:21.800Z,0.30
2023-02-08T03:12:59.761Z,0.30
2023-02-08T03:15:38.478Z,0.30
2023-02-08T03:18:21.932Z,0.30
2023-02-08T03:20:59.213Z,0.30
2023-02-08T03:23:33.329Z,0.40
2023-02-08T03:26:09.312Z,0.40
2023-02-08T03:28:42.812Z,0.30
2023-02-08T03:31:21.149Z,0.30
2023-02-08T03:33:55.784Z,0.20
2023-02-08T03:36:33.309Z,0.20
2023-02-08T03:39:06.551Z,0.20
2023-02-08T03:41:41.404Z,0.20
2023-02-08T03:44:17.084Z,0.20
2023-02-08T03:46:52.367Z,0.20
2023-02-08T03:49:25.670Z,0.20
2023-02-08T03:51:59.635Z,0.20
2023-02-08T03:54:33.446Z,0.20
2023-02-08T03:57:10.543Z,0.10
2023-02-08T03:59:43.108Z,0.10
2023-02-08T04:02:16.159Z,0.10
2023-02-08T04:04:48.312Z,0.20
2023-02-08T04:07:20.873Z,0.10
2023-02-08T04:09:50.628Z,0.10
2023-02-08T04:12:20.741Z,0.10
2023-02-08T04:14:50.740Z,0.10
2023-02-08T04:17:20.660Z,0.10
2023-02-08T04:19:50.277Z,0.10
2023-02-08T04:22:21.067Z,0.00
2023-02-08T04:24:51.016Z,0.00
2023-02-08T04:27:20.386Z,-0.10
2023-02-08T04:29:50.028Z,-0.10
2023-02-08T04:32:19.427Z,-0.10
2023-02-08T04:34:49.497Z,-0.10
2023-02-08T04:37:20.266Z,-0.20
2023-02-08T04:39:50.441Z,-0.10
2023-02-08T04:42:20.315Z,-0.10
2023-02-08T04:44:49.966Z,0.00
2023-02-08T04:47:19.430Z,-0.10
2023-02-08T04:49:49.016Z,-0.20
2023-02-08T04:52:20.460Z,-0.10
2023-02-08T04:54:50.087Z,-0.10
2023-02-08T04:57:19.493Z,-0.10
2023-02-08T04:59:49.146Z,-0.20
2023-02-08T05:02:18.541Z,-0.20
2023-02-08T05:04:48.989Z,-0.20
2023-02-08T05:07:19.763Z,-0.20
2023-02-08T05:09:49.465Z,-0.30
2023-02-08T05:12:19.951Z,-0.20
2023-02-08T05:14:49.395Z,-0.30
2023-02-08T05:17:18.799Z,-0.30
2023-02-08T05:19:48.932Z,-0.30
2023-02-08T05:22:19.690Z,-0.30
2023-02-08T05:24:49.651Z,-0.30
2023-02-08T05:27:19.288Z,-0.30
2023-02-08T05:29:49.393Z,-0.30
2023-02-08T05:32:18.995Z,-0.30
2023-02-08T05:34:48.795Z,-0.40
2023-02-08T05:37:20.541Z,-0.40
2023-02-08T05:39:50.331Z,-0.40
2023-02-08T05:42:19.686Z,-0.40
2023-02-08T05:44:49.831Z,-0.40
2023-02-08T05:47:19.177Z,-0.40
2023-02-08T05:49:49.952Z,-0.50
2023-02-08T05:52:20.816Z,-0.50
2023-02-08T05:54:50.576Z,-0.50
2023-02-08T05:57:19.846Z,-0.50
2023-02-08T05:59:49.563Z,-0.60
2023-02-08T06:02:18.845Z,-0.50
2023-02-08T06:04:48.706Z,-0.50
2023-02-08T06:07:18.040Z,-0.50
2023-02-08T06:09:49.587Z,-0.50
2023-02-08T06:12:19.279Z,-0.50
2023-02-08T06:14:49.103Z,-0.50
2023-02-08T06:17:18.460Z,-0.50
2023-02-08T06:19:48.738Z,-0.50
2023-02-08T06:22:18.160Z,-0.60
2023-02-08T06:24:49.679Z,-0.60
2023-02-08T06:27:19.451Z,-0.70
2023-02-08T06:29:49.119Z,-0.70
2023-02-08T06:32:18.555Z,-0.70
2023-02-08T06:34:48.765Z,-0.70
2023-02-08T06:37:18.073Z,-0.70
2023-02-08T06:39:49.987Z,-0.80
2023-02-08T06:42:19.341Z,-0.70
2023-02-08T06:44:54.977Z,-0.70
2023-02-08T06:47:25.248Z,-0.70
2023-02-08T06:49:55.409Z,-0.60
2023-02-08T06:52:25.003Z,-0.70
2023-02-08T06:54:56.563Z,-0.70
2023-02-08T06:57:26.166Z,-0.70
2023-02-08T06:59:55.791Z,-0.60
2023-02-08T07:02:25.136Z,-0.70
2023-02-08T07:04:54.874Z,-0.70
2023-02-08T07:07:24.329Z,-0.60
2023-02-08T07:09:55.643Z,-0.60
2023-02-08T07:12:25.074Z,-0.70
2023-02-08T07:14:54.841Z,-0.70
2023-02-08T07:17:24.263Z,-0.70
2023-02-08T07:19:54.517Z,-0.70
2023-02-08T07:22:23.842Z,-0.80
2023-02-08T07:24:55.443Z,-0.70
2023-02-08T07:27:26.086Z,-0.70
2023-02-08T07:29:55.441Z,-0.70
2023-02-08T07:32:25.246Z,-0.60
2023-02-08T07:34:55.656Z,-0.60
2023-02-08T07:37:25.061Z,-0.60
2023-02-08T07:39:56.768Z,-0.70
2023-02-08T07:42:26.088Z,-0.70
2023-02-08T07:44:56.091Z,-0.60
2023-02-08T07:47:25.319Z,-0.60
2023-02-08T07:49:55.051Z,-0.60
2023-02-08T07:52:24.421Z,-0.60
2023-02-08T07:54:55.534Z,-0.60
2023-02-08T07:57:24.847Z,-0.60
2023-02-08T07:59:54.955Z,-0.50
2023-02-08T08:02:24.344Z,-0.50
2023-02-08T08:04:55.139Z,-0.50
2023-02-08T08:07:24.636Z,-0.40
2023-02-08T08:09:55.770Z,-0.40
2023-02-08T08:12:25.595Z,-0.40
2023-02-08T08:14:55.408Z,-0.40
2023-02-08T08:17:24.691Z,-0.40
2023-02-08T08:19:54.367Z,-0.50
2023-02-08T08:22:23.843Z,-0.50
2023-02-08T08:24:54.955Z,-0.50
2023-02-08T08:27:24.235Z,-0.60
2023-02-08T08:29:54.253Z,-0.50
2023-02-08T08:32:23.560Z,-0.50
2023-02-08T08:34:53.190Z,-0.40
2023-02-08T08:37:22.546Z,-0.30
2023-02-08T08:39:52.432Z,-0.40
2023-02-08T08:42:23.151Z,-0.40
2023-02-08T08:44:52.942Z,-0.40
2023-02-08T08:47:22.749Z,-0.40
2023-02-08T08:49:52.556Z,-0.40
2023-02-08T08:52:21.942Z,-0.50
2023-02-08T08:54:51.566Z,-0.50
2023-02-08T08:57:22.382Z,-0.50
2023-02-08T08:59:52.031Z,-0.60
2023-02-08T09:02:21.413Z,-0.60
2023-02-08T09:04:51.063Z,-0.60
2023-02-08T09:07:20.334Z,-0.60
2023-02-08T09:09:50.020Z,-0.60
2023-02-08T09:12:19.414Z,-0.50
2023-02-08T09:14:51.106Z,-0.50
2023-02-08T09:17:20.513Z,-0.50
2023-02-08T09:19:50.344Z,-0.40
2023-02-08T09:22:20.119Z,-0.30
2023-02-08T09:24:50.016Z,-0.30
2023-02-08T09:27:19.369Z,-0.30
2023-02-08T09:29:50.584Z,-0.10
2023-02-08T09:32:21.455Z,-0.10
2023-02-08T09:34:51.150Z,-0.10
2023-02-08T09:37:20.411Z,-0.10
2023-02-08T09:39:50.635Z,0.00
2023-02-08T09:42:41.777Z,-0.20
2023-02-08T09:45:37.780Z,-0.30
2023-02-08T09:48:20.851Z,-0.40
2023-02-08T09:50:54.912Z,-0.20
2023-02-08T09:53:31.244Z,0.00
2023-02-08T09:56:03.060Z,0.20
2023-02-08T09:58:40.027Z,0.40
2023-02-08T10:01:20.366Z,0.50
2023-02-08T10:03:53.577Z,0.50
2023-02-08T10:06:23.725Z,0.40
2023-02-08T10:08:54.792Z,0.50
2023-02-08T10:11:43.913Z,0.60
2023-02-08T10:14:37.965Z,0.60
2023-02-08T10:17:29.688Z,0.40
2023-02-08T10:20:10.109Z,0.40
2023-02-08T10:22:44.814Z,0.60
2023-02-08T10:25:29.438Z,0.60
2023-02-08T10:28:15.935Z,0.70
2023-02-08T10:30:56.056Z,0.60
2023-02-08T10:33:31.810Z,0.70
2023-02-08T10:36:01.347Z,0.70
2023-02-08T10:38:45.731Z,0.60
2023-02-08T10:41:22.001Z,0.60
2023-02-08T10:43:58.190Z,0.70
2023-02-08T10:46:34.615Z,0.80
2023-02-08T10:49:18.591Z,1.00
2023-02-08T10:51:48.630Z,1.10
2023-02-08T10:54:19.310Z,1.30
2023-02-08T10:56:52.692Z,1.40
2023-02-08T10:59:25.858Z,1.50
2023-02-08T11:01:56.284Z,1.60
2023-02-08T11:04:27.756Z,1.40
2023-02-08T11:06:57.748Z,1.40
2023-02-08T11:09:29.691Z,1.50
2023-02-08T11:12:01.539Z,1.70
2023-02-08T11:14:46.109Z,1.80
2023-02-08T11:17:27.785Z,1.70
2023-02-08T11:20:00.635Z,1.60
2023-02-08T11:22:32.627Z,1.60
2023-02-08T11:25:05.766Z,1.60
2023-02-08T11:27:37.767Z,1.90
2023-02-08T11:30:28.227Z,2.10
2023-02-08T11:33:20.019Z,2.50
2023-02-08T11:36:01.144Z,2.10
2023-02-08T11:38:31.608Z,1.90
2023-02-08T11:41:03.879Z,1.60
2023-02-08T11:43:35.762Z,1.50
2023-02-08T11:46:07.179Z,1.50
2023-02-08T11:48:40.930Z,1.60
2023-02-08T11:51:15.612Z,1.60
2023-02-08T11:53:50.046Z,1.70
2023-02-08T11:56:21.799Z,2.20
2023-02-08T11:59:08.045Z,2.10
2023-02-08T12:01:39.967Z,2.10
2023-02-08T12:04:12.083Z,2.10
2023-02-08T12:07:15.938Z,2.00
2023-02-08T12:10:20.460Z,2.00
2023-02-08T12:13:05.919Z,1.90
2023-02-08T12:15:57.456Z,1.90
2023-02-08T12:19:01.506Z,2.00
2023-02-08T12:21:39.508Z,2.20
2023-02-08T12:24:20.466Z,2.20
2023-02-08T12:27:01.738Z,2.10
2023-02-08T12:29:48.512Z,2.20
2023-02-08T12:32:38.643Z,2.60
2023-02-08T12:35:50.962Z,2.90
2023-02-08T12:39:10.383Z,3.10
2023-02-08T12:41:56.703Z,3.00
2023-02-08T12:44:34.172Z,3.40
2023-02-08T12:47:17.680Z,3.30
2023-02-08T12:49:58.923Z,3.40
2023-02-08T12:52:36.032Z,3.30
2023-02-08T12:55:15.311Z,3.50
2023-02-08T12:57:49.347Z,3.80
2023-02-08T13:00:23.221Z,4.10
2023-02-08T13:03:00.540Z,3.80
2023-02-08T13:05:34.930Z,3.40
2023-02-08T13:08:17.536Z,3.30
2023-02-08T13:10:51.664Z,3.40
2023-02-08T13:13:26.999Z,3.40
2023-02-08T13:15:59.756Z,3.40
2023-02-08T13:18:34.135Z,3.80
2023-02-08T13:21:08.028Z,4.20
2023-02-08T13:23:51.723Z,4.70
2023-02-08T13:26:26.933Z,5.30
2023-02-08T13:29:01.619Z,5.80
2023-02-08T13:31:34.669Z,6.20
2023-02-08T13:34:09.162Z,6.10
2023-02-08T13:36:42.795Z,5.80
2023-02-08T13:39:32.071Z,5.70
2023-02-08T13:42:02.772Z,5.90
2023-02-08T13:44:37.055Z,5.90
2023-02-08T13:47:07.843Z,5.50
2023-02-08T13:49:53.167Z,5.40
2023-02-08T13:52:51.063Z,5.40
2023-02-08T13:55:46.197Z,5.50
2023-02-08T13:59:05.937Z,5.70
2023-02-08T14:01:38.398Z,6.10
2023-02-08T14:04:34.403Z,6.30
2023-02-08T14:07:39.012Z,5.70
2023-02-08T14:10:28.155Z,5.30
2023-02-08T14:13:03.137Z,5.00
2023-02-08T14:15:35.162Z,4.70
2023-02-08T14:18:07.496Z,4.50
2023-02-08T14:20:40.505Z,4.00
2023-02-08T14:23:23.761Z,3.90
2023-02-08T14:25:55.251Z,3.90
2023-02-08T14:28:29.221Z,3.90
2023-02-08T14:31:01.625Z,3.70
2023-02-08T14:33:36.503Z,3.30
2023-02-08T14:36:09.011Z,3.00
2023-02-08T14:39:07.161Z,2.60
2023-02-08T14:41:49.470Z,2.50
2023-02-08T14:44:55.486Z,2.30
2023-02-08T14:48:00.557Z,2.10
2023-02-08T14:50:35.685Z,1.70
2023-02-08T14:53:17.321Z,1.40
2023-02-08T14:55:52.363Z,1.20
2023-02-08T14:58:30.250Z,1.10
2023-02-08T15:01:03.532Z,1.00
2023-02-08T15:03:37.406Z,0.80
2023-02-08T15:06:37.626Z,0.70
2023-02-08T15:09:14.854Z,0.60
2023-02-08T15:11:49.210Z,0.40
2023-02-08T15:14:22.066Z,0.30
2023-02-08T15:16:54.274Z,0.20
2023-02-08T15:19:27.663Z,0.20
2023-02-08T15:21:57.716Z,0.10
2023-02-08T15:24:30.052Z,0.10
2023-02-08T15:27:00.737Z,0.00
2023-02-08T15:29:43.837Z,0.00
2023-02-08T15:32:17.878Z,0.00
2023-02-08T15:34:51.680Z,-0.20
2023-02-08T15:37:21.866Z,-0.20
2023-02-08T15:39:56.336Z,-0.20
2023-02-08T15:42:29.299Z,-0.30
2023-02-08T15:45:00.766Z,-0.30
2023-02-08T15:47:33.103Z,-0.40
2023-02-08T15:50:04.292Z,-0.50
2023-02-08T15:52:38.208Z,-0.50
2023-02-08T15:55:14.185Z,-0.60
2023-02-08T15:57:48.988Z,-0.60
2023-02-08T16:00:21.747Z,-0.70
2023-02-08T16:02:55.962Z,-0.70
2023-02-08T16:05:28.272Z,-0.80
2023-02-08T16:07:58.392Z,-0.80
2023-02-08T16:10:36.943Z,-0.90
2023-02-08T16:13:09.245Z,-0.90
2023-02-08T16:15:43.435Z,-0.90
2023-02-08T16:18:40.119Z,-1.00
2023-02-08T16:21:21.864Z,-1.00
2023-02-08T16:23:52.764Z,-1.00
2023-02-08T16:26:28.915Z,-1.00
2023-02-08T16:29:01.058Z,-1.10
2023-02-08T16:31:33.184Z,-1.10
2023-02-08T16:34:06.376Z,-1.10
2023-02-08T16:36:39.651Z,-1.10
2023-02-08T16:39:47.242Z,-1.10
2023-02-08T16:42:30.896Z,-1.10
2023-02-08T16:45:14.231Z,-1.10
2023-02-08T16:47:45.297Z,-1.20
2023-02-08T16:50:17.843Z,-1.20
2023-02-08T16:52:49.675Z,-1.20
2023-02-08T16:55:22.909Z,-1.20
2023-02-08T16:57:55.342Z,-1.30
2023-02-08T17:00:27.864Z,-1.30
2023-02-08T17:02:57.733Z,-1.30
2023-02-08T17:05:30.416Z,-1.30
2023-02-08T17:08:00.711Z,-1.30
2023-02-08T17:10:31.820Z,-1.30
2023-02-08T17:13:19.214Z,-1.30
2023-02-08T17:15:51.970Z,-1.40
2023-02-08T17:18:23.247Z,-1.40
2023-02-08T17:20:57.999Z,-1.40
2023-02-08T17:23:28.110Z,-1.40
2023-02-08T17:25:58.976Z,-1.40
2023-02-08T17:28:29.884Z,-1.40
2023-02-08T17:31:00.942Z,-1.40
2023-02-08T17:33:30.347Z,-1.40
2023-02-08T17:36:02.804Z,-1.30
2023-02-08T17:38:32.249Z,-1.50
2023-02-08T17:41:05.711Z,-1.60
2023-02-08T17:43:37.455Z,-1.60
2023-02-08T17:46:11.636Z,-1.70
2023-02-08T17:48:41.100Z,-1.70
2023-02-08T17:51:11.601Z,-1.70
2023-02-08T17:53:41.127Z,-1.70
2023-02-08T17:56:13.639Z,-1.70
2023-02-08T17:58:44.873Z,-1.70
2023-02-08T18:01:19.578Z,-1.70
2023-02-08T18:03:50.466Z,-1.70
2023-02-08T18:06:21.139Z,-1.70
2023-02-08T18:08:50.538Z,-1.70
2023-02-08T18:11:21.701Z,-1.80
2023-02-08T18:13:54.546Z,-1.90
2023-02-08T18:16:26.491Z,-2.00
2023-02-08T18:18:57.351Z,-2.10
2023-02-08T18:21:27.787Z,-2.10
2023-02-08T18:23:57.225Z,-2.10
2023-02-08T18:26:26.965Z,-2.10
2023-02-08T18:28:58.278Z,-2.20
2023-02-08T18:31:28.434Z,-2.10
2023-02-08T18:33:58.095Z,-2.20
2023-02-08T18:36:28.500Z,-2.20
2023-02-08T18:38:57.914Z,-2.20
2023-02-08T18:41:30.526Z,-2.30
2023-02-08T18:44:02.699Z,-2.30
2023-02-08T18:46:32.625Z,-2.30
2023-02-08T18:49:02.031Z,-2.30
2023-02-08T18:51:31.999Z,-2.20
2023-02-08T18:54:01.642Z,-2.20
2023-02-08T18:56:35.736Z,-2.30
2023-02-08T18:59:06.738Z,-2.40
2023-02-08T19:01:36.440Z,-2.40
2023-02-08T19:04:06.486Z,-2.40
2023-02-08T19:06:38.613Z,-2.40
2023-02-08T19:09:09.138Z,-2.40
2023-02-08T19:11:41.347Z,-2.40
2023-02-08T19:14:16.129Z,-2.50
2023-02-08T19:16:46.610Z,-2.50
2023-02-08T19:19:16.036Z,-2.50
2023-02-08T19:21:45.662Z,-2.50
2023-02-08T19:24:16.950Z,-2.50
2023-02-08T19:26:46.800Z,-2.50
2023-02-08T19:29:22.582Z,-2.50
2023-02-08T19:31:52.626Z,-2.50
2023-02-08T19:34:22.297Z,-2.50
2023-02-08T19:36:54.683Z,-2.40
2023-02-08T19:39:29.307Z,-2.40
2023-02-08T19:41:59.556Z,-2.30
2023-02-08T19:44:30.826Z,-2.30
2023-02-08T19:47:01.235Z,-2.20
2023-02-08T19:49:30.890Z,-2.10
2023-02-08T19:52:00.598Z,-2.10
2023-02-08T19:54:29.878Z,-2.10
2023-02-08T19:56:59.640Z,-2.10
2023-02-08T19:59:34.935Z,-2.10
2023-02-08T20:02:05.615Z,-2.10
2023-02-08T20:04:35.515Z,-2.10
2023-02-08T20:07:05.843Z,-2.10
2023-02-08T20:09:35.494Z,-2.10
2023-02-08T20:12:06.068Z,-2.10
2023-02-08T20:14:36.809Z,-2.10
2023-02-08T20:17:07.869Z,-2.10
2023-02-08T20:19:39.069Z,-2.10
2023-02-08T20:22:09.714Z,-2.10
2023-02-08T20:24:39.236Z,-2.00
2023-02-08T20:27:11.371Z,-2.10
2023-02-08T20:29:42.337Z,-2.10
2023-02-08T20:32:12.116Z,-2.10
2023-02-08T20:34:50.643Z,-2.10
2023-02-08T20:37:28.607Z,-2.10
2023-02-08T20:39:57.905Z,-2.20
2023-02-08T20:42:27.647Z,-2.10
2023-02-08T20:44:58.778Z,-2.10
2023-02-08T20:47:30.037Z,-2.10
2023-02-08T20:50:04.999Z,-2.10
2023-02-08T20:52:39.938Z,-2.10
2023-02-08T20:55:10.215Z,-2.10
2023-02-08T20:57:39.846Z,-2.10
2023-02-08T21:00:13.364Z,-2.00
2023-02-08T21:02:43.312Z,-2.10
2023-02-08T21:05:13.574Z,-2.00
2023-02-08T21:07:43.221Z,-2.00
2023-02-08T21:10:12.662Z,-2.00
2023-02-08T21:12:42.728Z,-2.00
2023-02-08T21:15:13.784Z,-2.00
2023-02-08T21:17:43.514Z,-1.90
2023-02-08T21:20:15.331Z,-1.90
2023-02-08T21:22:45.579Z,-2.00
2023-02-08T21:25:15.017Z,-2.00
2023-02-08T21:27:45.194Z,-2.00
2023-02-08T21:30:16.150Z,-1.90
2023-02-08T21:32:45.762Z,-1.90
2023-02-08T21:35:15.114Z,-1.80
2023-02-08T21:37:44.918Z,-1.90
2023-02-08T21:40:14.231Z,-1.90
2023-02-08T21:42:43.963Z,-1.90
2023-02-08T21:45:14.909Z,-1.90
2023-02-08T21:47:44.584Z,-1.90
2023-02-08T21:50:31.320Z,-1.90
2023-02-08T21:53:21.461Z,-1.90
2023-02-08T21:55:50.986Z,-1.90
2023-02-08T21:58:20.840Z,-1.90
2023-02-08T22:00:51.765Z,-1.90
2023-02-08T22:03:21.720Z,-1.90
2023-02-08T22:06:08.415Z,-2.00
2023-02-08T22:08:38.425Z,-1.90
2023-02-08T22:11:08.943Z,-2.00
2023-02-08T22:13:38.722Z,-1.90
2023-02-08T22:16:11.821Z,-1.90
2023-02-08T22:18:41.839Z,-2.00
2023-02-08T22:21:11.256Z,-1.90
2023-02-08T22:23:40.900Z,-1.90
2023-02-08T22:26:11.187Z,-1.90
2023-02-08T22:28:40.811Z,-2.00
2023-02-08T22:31:11.685Z,-2.10
2023-02-08T22:33:41.505Z,-2.00
2023-02-08T22:36:12.489Z,-2.00
2023-02-08T22:38:42.274Z,-2.00
2023-02-08T22:41:12.945Z,-2.00
2023-02-08T22:43:42.508Z,-2.10
2023-02-08T22:46:13.911Z,-2.10
2023-02-08T22:48:43.661Z,-2.20
2023-02-08T22:51:17.300Z,-2.10
2023-02-08T22:53:47.174Z,-2.20
2023-02-08T22:56:17.366Z,-2.20
2023-02-08T22:58:47.305Z,-2.10
2023-02-08T23:01:19.253Z,-2.10
2023-02-08T23:03:49.450Z,-2.20
2023-02-08T23:06:21.657Z,-2.20
2023-02-08T23:08:51.507Z,-2.10
2023-02-08T23:11:21.764Z,-2.10
2023-02-08T23:13:51.477Z,-2.20
2023-02-08T23:16:22.295Z,-2.10
2023-02-08T23:18:52.206Z,-2.20
2023-02-08T23:21:22.532Z,-2.20
2023-02-08T23:23:52.680Z,-2.10
2023-02-08T23:26:23.171Z,-2.10
2023-02-08T23:28:54.596Z,-2.20
2023-02-08T23:31:25.499Z,-2.20
2023-02-08T23:33:55.404Z,-2.10
2023-02-08T23:36:25.310Z,-2.20
2023-02-08T23:38:55.228Z,-2.10
2023-02-08T23:41:26.049Z,-2.20
2023-02-08T23:43:56.176Z,-2.10
2023-02-08T23:46:28.584Z,-2.20
2023-02-08T23:48:58.766Z,-2.20
2023-02-08T23:51:28.155Z,-2.10
2023-02-08T23:53:58.327Z,-2.20
2023-02-08T23:56:29.675Z,-2.20
2023-02-08T23:59:01.610Z,-2.20
